sensor_id;sensor_type;location;lat;lon;timestamp;P1;durP1;ratioP1;P2;durP2;ratioP2
4144;SDS011;2086;51.050;6.982;2022-09-06T00:00:37;2.87;;;1.20;;
4144;SDS011;2086;51.050;6.982;2022-09-06T00:03:03;1.43;;;1.20;;
4144;SDS011;2086;51.050;6.982;2022-09-06T00:05:30;1.90;;;1.20;;
4144;SDS011;2086;51.050;6.982;2022-09-06T00:07:58;1.00;;;1.00;;
4144;SDS011;2086;51.050;6.982;2022-09-06T00:10:24;1.93;;;1.80;;
4144;SDS011;2086;51.050;6.982;2022-09-06T00:12:50;3.03;;;1.33;;
4144;SDS011;2086;51.050;6.982;2022-09-06T00:15:15;1.37;;;1.00;;
4144;SDS011;2086;51.050;6.982;2022-09-06T00:17:40;1.10;;;1.10;;
4144;SDS011;2086;51.050;6.982;2022-09-06T00:20:08;4.00;;;1.20;;
4144;SDS011;2086;51.050;6.982;2022-09-06T00:22:34;4.67;;;1.27;;
4144;SDS011;2086;51.050;6.982;2022-09-06T00:25:00;0.90;;;0.90;;
4144;SDS011;2086;51.050;6.982;2022-09-06T00:27:25;1.00;;;1.00;;
4144;SDS011;2086;51.050;6.982;2022-09-06T00:29:52;4.83;;;1.27;;
4144;SDS011;2086;51.050;6.982;2022-09-06T00:32:17;1.77;;;0.90;;
4144;SDS011;2086;51.050;6.982;2022-09-06T00:34:42;1.50;;;1.30;;
4144;SDS011;2086;51.050;6.982;2022-09-06T00:37:08;1.17;;;1.07;;
4144;SDS011;2086;51.050;6.982;2022-09-06T00:39:33;2.87;;;1.73;;
4144;SDS011;2086;51.050;6.982;2022-09-06T00:41:59;1.70;;;1.60;;
4144;SDS011;2086;51.050;6.982;2022-09-06T00:44:24;2.07;;;1.97;;
4144;SDS011;2086;51.050;6.982;2022-09-06T00:46:49;1.60;;;1.50;;
4144;SDS011;2086;51.050;6.982;2022-09-06T00:49:20;1.47;;;1.37;;
4144;SDS011;2086;51.050;6.982;2022-09-06T00:51:49;1.17;;;1.17;;
4144;SDS011;2086;51.050;6.982;2022-09-06T00:54:15;1.70;;;1.60;;
4144;SDS011;2086;51.050;6.982;2022-09-06T00:56:40;4.00;;;2.33;;
4144;SDS011;2086;51.050;6.982;2022-09-06T00:59:07;2.20;;;2.10;;
4144;SDS011;2086;51.050;6.982;2022-09-06T01:01:33;6.93;;;1.97;;
4144;SDS011;2086;51.050;6.982;2022-09-06T01:03:58;4.40;;;2.20;;
4144;SDS011;2086;51.050;6.982;2022-09-06T01:11:46;1.77;;;1.67;;
4144;SDS011;2086;51.050;6.982;2022-09-06T01:21:52;2.63;;;2.47;;
4144;SDS011;2086;51.050;6.982;2022-09-06T01:27:51;2.40;;;2.30;;
4144;SDS011;2086;51.050;6.982;2022-09-06T01:30:13;2.30;;;2.20;;
4144;SDS011;2086;51.050;6.982;2022-09-06T01:32:59;3.40;;;3.10;;
4144;SDS011;2086;51.050;6.982;2022-09-06T01:35:32;2.10;;;2.00;;
4144;SDS011;2086;51.050;6.982;2022-09-06T01:37:59;5.23;;;2.93;;
4144;SDS011;2086;51.050;6.982;2022-09-06T01:40:24;6.53;;;3.87;;
4144;SDS011;2086;51.050;6.982;2022-09-06T01:42:51;2.80;;;2.60;;
4144;SDS011;2086;51.050;6.982;2022-09-06T01:45:22;2.77;;;2.57;;
4144;SDS011;2086;51.050;6.982;2022-09-06T01:55:50;2.90;;;2.80;;
4144;SDS011;2086;51.050;6.982;2022-09-06T02:03:26;3.83;;;3.53;;
4144;SDS011;2086;51.050;6.982;2022-09-06T02:06:13;3.87;;;3.63;;
4144;SDS011;2086;51.050;6.982;2022-09-06T02:08:38;3.37;;;3.07;;
4144;SDS011;2086;51.050;6.982;2022-09-06T02:11:05;3.57;;;3.30;;
4144;SDS011;2086;51.050;6.982;2022-09-06T02:13:38;4.20;;;3.77;;
4144;SDS011;2086;51.050;6.982;2022-09-06T02:16:06;3.47;;;3.17;;
4144;SDS011;2086;51.050;6.982;2022-09-06T02:20:59;3.43;;;3.07;;
4144;SDS011;2086;51.050;6.982;2022-09-06T02:23:27;4.17;;;3.97;;
4144;SDS011;2086;51.050;6.982;2022-09-06T02:25:55;4.03;;;3.83;;
4144;SDS011;2086;51.050;6.982;2022-09-06T02:28:22;3.47;;;3.17;;
4144;SDS011;2086;51.050;6.982;2022-09-06T02:30:48;4.43;;;4.03;;
4144;SDS011;2086;51.050;6.982;2022-09-06T02:33:19;6.70;;;5.30;;
4144;SDS011;2086;51.050;6.982;2022-09-06T02:35:46;3.63;;;3.33;;
4144;SDS011;2086;51.050;6.982;2022-09-06T02:38:12;3.60;;;3.40;;
4144;SDS011;2086;51.050;6.982;2022-09-06T02:40:37;7.00;;;3.53;;
4144;SDS011;2086;51.050;6.982;2022-09-06T02:43:03;4.97;;;3.60;;
4144;SDS011;2086;51.050;6.982;2022-09-06T02:45:28;5.20;;;4.80;;
4144;SDS011;2086;51.050;6.982;2022-09-06T02:47:53;4.97;;;4.60;;
4144;SDS011;2086;51.050;6.982;2022-09-06T02:50:18;7.57;;;4.47;;
4144;SDS011;2086;51.050;6.982;2022-09-06T02:52:44;4.30;;;4.00;;
4144;SDS011;2086;51.050;6.982;2022-09-06T02:55:09;3.57;;;3.40;;
4144;SDS011;2086;51.050;6.982;2022-09-06T02:57:35;4.70;;;4.40;;
4144;SDS011;2086;51.050;6.982;2022-09-06T03:00:00;5.47;;;4.73;;
4144;SDS011;2086;51.050;6.982;2022-09-06T03:02:26;3.53;;;3.20;;
4144;SDS011;2086;51.050;6.982;2022-09-06T03:04:51;4.30;;;4.00;;
4144;SDS011;2086;51.050;6.982;2022-09-06T03:07:16;5.60;;;4.30;;
4144;SDS011;2086;51.050;6.982;2022-09-06T03:09:42;6.20;;;5.30;;
4144;SDS011;2086;51.050;6.982;2022-09-06T03:12:07;7.43;;;3.53;;
4144;SDS011;2086;51.050;6.982;2022-09-06T03:14:32;4.07;;;3.37;;
4144;SDS011;2086;51.050;6.982;2022-09-06T03:16:59;2.87;;;2.77;;
4144;SDS011;2086;51.050;6.982;2022-09-06T03:19:25;5.37;;;3.60;;
4144;SDS011;2086;51.050;6.982;2022-09-06T03:21:50;4.70;;;3.07;;
4144;SDS011;2086;51.050;6.982;2022-09-06T03:24:16;4.03;;;3.33;;
4144;SDS011;2086;51.050;6.982;2022-09-06T03:26:41;3.33;;;3.03;;
4144;SDS011;2086;51.050;6.982;2022-09-06T03:29:06;2.87;;;2.67;;
4144;SDS011;2086;51.050;6.982;2022-09-06T03:31:32;3.50;;;3.30;;
4144;SDS011;2086;51.050;6.982;2022-09-06T03:33:57;4.43;;;3.93;;
4144;SDS011;2086;51.050;6.982;2022-09-06T03:36:22;4.47;;;4.00;;
4144;SDS011;2086;51.050;6.982;2022-09-06T03:38:47;6.20;;;2.70;;
4144;SDS011;2086;51.050;6.982;2022-09-06T03:41:13;4.30;;;3.90;;
4144;SDS011;2086;51.050;6.982;2022-09-06T03:43:38;4.63;;;4.23;;
4144;SDS011;2086;51.050;6.982;2022-09-06T03:46:04;3.97;;;3.43;;
4144;SDS011;2086;51.050;6.982;2022-09-06T03:48:29;7.77;;;4.77;;
4144;SDS011;2086;51.050;6.982;2022-09-06T03:50:55;3.83;;;3.33;;
4144;SDS011;2086;51.050;6.982;2022-09-06T03:53:21;3.50;;;3.30;;
4144;SDS011;2086;51.050;6.982;2022-09-06T03:55:47;4.37;;;4.00;;
4144;SDS011;2086;51.050;6.982;2022-09-06T03:58:13;2.80;;;2.60;;
4144;SDS011;2086;51.050;6.982;2022-09-06T04:00:39;3.47;;;3.27;;
4144;SDS011;2086;51.050;6.982;2022-09-06T04:03:04;7.83;;;2.43;;
4144;SDS011;2086;51.050;6.982;2022-09-06T04:05:30;2.43;;;2.33;;
4144;SDS011;2086;51.050;6.982;2022-09-06T04:07:55;2.90;;;2.70;;
4144;SDS011;2086;51.050;6.982;2022-09-06T04:10:20;3.37;;;2.93;;
4144;SDS011;2086;51.050;6.982;2022-09-06T04:12:45;2.97;;;2.77;;
4144;SDS011;2086;51.050;6.982;2022-09-06T04:15:10;4.53;;;3.33;;
4144;SDS011;2086;51.050;6.982;2022-09-06T04:17:36;4.83;;;3.00;;
4144;SDS011;2086;51.050;6.982;2022-09-06T04:20:01;3.47;;;3.10;;
4144;SDS011;2086;51.050;6.982;2022-09-06T04:22:27;2.90;;;2.80;;
4144;SDS011;2086;51.050;6.982;2022-09-06T04:24:52;5.70;;;3.70;;
4144;SDS011;2086;51.050;6.982;2022-09-06T04:27:17;8.73;;;2.97;;
4144;SDS011;2086;51.050;6.982;2022-09-06T04:29:43;4.40;;;3.13;;
4144;SDS011;2086;51.050;6.982;2022-09-06T04:32:08;3.40;;;3.20;;
4144;SDS011;2086;51.050;6.982;2022-09-06T04:34:34;3.43;;;3.20;;
4144;SDS011;2086;51.050;6.982;2022-09-06T04:36:59;2.67;;;2.50;;
4144;SDS011;2086;51.050;6.982;2022-09-06T04:39:24;2.80;;;2.60;;
4144;SDS011;2086;51.050;6.982;2022-09-06T04:41:49;3.10;;;2.97;;
4144;SDS011;2086;51.050;6.982;2022-09-06T04:44:14;3.30;;;3.10;;
4144;SDS011;2086;51.050;6.982;2022-09-06T04:46:40;3.53;;;3.20;;
4144;SDS011;2086;51.050;6.982;2022-09-06T04:49:05;3.90;;;3.20;;
4144;SDS011;2086;51.050;6.982;2022-09-06T04:51:31;2.87;;;2.30;;
4144;SDS011;2086;51.050;6.982;2022-09-06T04:53:56;3.40;;;3.10;;
4144;SDS011;2086;51.050;6.982;2022-09-06T04:56:22;4.20;;;2.90;;
4144;SDS011;2086;51.050;6.982;2022-09-06T04:58:48;4.93;;;3.07;;
4144;SDS011;2086;51.050;6.982;2022-09-06T05:01:14;2.60;;;2.50;;
4144;SDS011;2086;51.050;6.982;2022-09-06T05:03:39;2.47;;;2.37;;
4144;SDS011;2086;51.050;6.982;2022-09-06T05:06:06;2.37;;;2.27;;
4144;SDS011;2086;51.050;6.982;2022-09-06T05:08:32;4.00;;;3.70;;
4144;SDS011;2086;51.050;6.982;2022-09-06T05:10:57;3.03;;;2.83;;
4144;SDS011;2086;51.050;6.982;2022-09-06T05:13:23;5.20;;;3.33;;
4144;SDS011;2086;51.050;6.982;2022-09-06T05:15:49;2.37;;;2.23;;
4144;SDS011;2086;51.050;6.982;2022-09-06T05:18:14;7.63;;;2.90;;
4144;SDS011;2086;51.050;6.982;2022-09-06T05:20:39;3.77;;;3.00;;
4144;SDS011;2086;51.050;6.982;2022-09-06T05:23:04;3.83;;;3.47;;
4144;SDS011;2086;51.050;6.982;2022-09-06T05:25:29;3.13;;;2.87;;
4144;SDS011;2086;51.050;6.982;2022-09-06T05:27:55;4.03;;;2.70;;
4144;SDS011;2086;51.050;6.982;2022-09-06T05:30:20;3.53;;;3.27;;
4144;SDS011;2086;51.050;6.982;2022-09-06T05:32:45;3.73;;;3.50;;
4144;SDS011;2086;51.050;6.982;2022-09-06T05:35:10;3.53;;;3.33;;
4144;SDS011;2086;51.050;6.982;2022-09-06T05:37:36;3.17;;;2.97;;
4144;SDS011;2086;51.050;6.982;2022-09-06T05:40:01;4.53;;;3.40;;
4144;SDS011;2086;51.050;6.982;2022-09-06T05:42:26;3.70;;;2.60;;
4144;SDS011;2086;51.050;6.982;2022-09-06T05:44:52;6.80;;;2.60;;
4144;SDS011;2086;51.050;6.982;2022-09-06T05:47:17;2.60;;;2.50;;
4144;SDS011;2086;51.050;6.982;2022-09-06T05:49:42;3.10;;;2.80;;
4144;SDS011;2086;51.050;6.982;2022-09-06T05:52:07;3.00;;;2.90;;
4144;SDS011;2086;51.050;6.982;2022-09-06T05:54:32;3.00;;;2.90;;
4144;SDS011;2086;51.050;6.982;2022-09-06T05:56:58;3.80;;;3.60;;
4144;SDS011;2086;51.050;6.982;2022-09-06T05:59:23;2.83;;;2.60;;
4144;SDS011;2086;51.050;6.982;2022-09-06T06:01:51;6.17;;;3.63;;
4144;SDS011;2086;51.050;6.982;2022-09-06T06:04:17;6.70;;;3.43;;
4144;SDS011;2086;51.050;6.982;2022-09-06T06:06:43;3.70;;;3.50;;
4144;SDS011;2086;51.050;6.982;2022-09-06T06:09:08;3.40;;;3.20;;
4144;SDS011;2086;51.050;6.982;2022-09-06T06:11:33;3.57;;;3.27;;
4144;SDS011;2086;51.050;6.982;2022-09-06T06:13:59;3.57;;;3.27;;
4144;SDS011;2086;51.050;6.982;2022-09-06T06:16:26;3.50;;;2.77;;
4144;SDS011;2086;51.050;6.982;2022-09-06T06:18:51;4.30;;;3.47;;
4144;SDS011;2086;51.050;6.982;2022-09-06T06:21:21;2.70;;;2.60;;
4144;SDS011;2086;51.050;6.982;2022-09-06T06:23:48;6.70;;;3.07;;
4144;SDS011;2086;51.050;6.982;2022-09-06T06:26:14;2.80;;;2.50;;
4144;SDS011;2086;51.050;6.982;2022-09-06T06:28:39;3.03;;;2.47;;
4144;SDS011;2086;51.050;6.982;2022-09-06T06:31:05;2.67;;;2.47;;
4144;SDS011;2086;51.050;6.982;2022-09-06T06:33:31;3.63;;;2.57;;
4144;SDS011;2086;51.050;6.982;2022-09-06T06:38:22;2.60;;;2.40;;
4144;SDS011;2086;51.050;6.982;2022-09-06T06:40:47;2.17;;;2.07;;
4144;SDS011;2086;51.050;6.982;2022-09-06T06:43:13;3.10;;;2.90;;
4144;SDS011;2086;51.050;6.982;2022-09-06T06:45:38;2.50;;;2.30;;
4144;SDS011;2086;51.050;6.982;2022-09-06T06:48:03;6.80;;;1.90;;
4144;SDS011;2086;51.050;6.982;2022-09-06T06:50:28;2.67;;;2.47;;
4144;SDS011;2086;51.050;6.982;2022-09-06T06:52:54;1.80;;;1.70;;
4144;SDS011;2086;51.050;6.982;2022-09-06T06:55:19;1.83;;;1.73;;
4144;SDS011;2086;51.050;6.982;2022-09-06T06:57:44;2.57;;;2.47;;
4144;SDS011;2086;51.050;6.982;2022-09-06T07:00:09;2.43;;;2.33;;
4144;SDS011;2086;51.050;6.982;2022-09-06T07:02:35;3.77;;;2.00;;
4144;SDS011;2086;51.050;6.982;2022-09-06T07:05:00;2.23;;;2.13;;
4144;SDS011;2086;51.050;6.982;2022-09-06T07:07:25;3.57;;;1.67;;
4144;SDS011;2086;51.050;6.982;2022-09-06T07:09:50;1.73;;;1.63;;
4144;SDS011;2086;51.050;6.982;2022-09-06T07:12:16;1.90;;;1.80;;
4144;SDS011;2086;51.050;6.982;2022-09-06T07:14:41;2.40;;;2.30;;
4144;SDS011;2086;51.050;6.982;2022-09-06T07:17:07;2.13;;;2.03;;
4144;SDS011;2086;51.050;6.982;2022-09-06T07:19:32;2.03;;;1.93;;
4144;SDS011;2086;51.050;6.982;2022-09-06T07:21:57;2.40;;;2.20;;
4144;SDS011;2086;51.050;6.982;2022-09-06T07:24:22;2.00;;;1.70;;
4144;SDS011;2086;51.050;6.982;2022-09-06T07:26:48;1.30;;;1.20;;
4144;SDS011;2086;51.050;6.982;2022-09-06T07:29:13;1.67;;;1.37;;
4144;SDS011;2086;51.050;6.982;2022-09-06T07:31:38;1.73;;;1.63;;
4144;SDS011;2086;51.050;6.982;2022-09-06T07:34:04;2.40;;;1.17;;
4144;SDS011;2086;51.050;6.982;2022-09-06T07:36:29;1.47;;;1.20;;
4144;SDS011;2086;51.050;6.982;2022-09-06T07:38:55;1.70;;;1.43;;
4144;SDS011;2086;51.050;6.982;2022-09-06T07:41:20;2.70;;;1.20;;
4144;SDS011;2086;51.050;6.982;2022-09-06T07:43:46;2.23;;;1.00;;
4144;SDS011;2086;51.050;6.982;2022-09-06T07:46:15;1.30;;;1.20;;
4144;SDS011;2086;51.050;6.982;2022-09-06T07:48:41;1.33;;;1.23;;
4144;SDS011;2086;51.050;6.982;2022-09-06T07:51:08;1.37;;;1.27;;
4144;SDS011;2086;51.050;6.982;2022-09-06T07:53:37;2.53;;;2.43;;
4144;SDS011;2086;51.050;6.982;2022-09-06T07:56:03;1.63;;;1.10;;
4144;SDS011;2086;51.050;6.982;2022-09-06T07:58:29;0.90;;;0.90;;
4144;SDS011;2086;51.050;6.982;2022-09-06T08:03:38;0.97;;;0.97;;
4144;SDS011;2086;51.050;6.982;2022-09-06T08:06:04;0.70;;;0.70;;
4144;SDS011;2086;51.050;6.982;2022-09-06T08:08:29;1.23;;;1.23;;
4144;SDS011;2086;51.050;6.982;2022-09-06T08:10:54;0.87;;;0.87;;
4144;SDS011;2086;51.050;6.982;2022-09-06T08:13:19;1.00;;;1.00;;
4144;SDS011;2086;51.050;6.982;2022-09-06T08:15:45;3.90;;;1.07;;
4144;SDS011;2086;51.050;6.982;2022-09-06T08:18:10;2.20;;;1.57;;
4144;SDS011;2086;51.050;6.982;2022-09-06T08:20:35;1.17;;;1.17;;
4144;SDS011;2086;51.050;6.982;2022-09-06T08:23:00;0.80;;;0.80;;
4144;SDS011;2086;51.050;6.982;2022-09-06T08:25:26;0.80;;;0.63;;
4144;SDS011;2086;51.050;6.982;2022-09-06T08:27:51;3.00;;;0.67;;
4144;SDS011;2086;51.050;6.982;2022-09-06T08:30:16;1.17;;;0.67;;
4144;SDS011;2086;51.050;6.982;2022-09-06T08:32:41;0.70;;;0.70;;
4144;SDS011;2086;51.050;6.982;2022-09-06T08:35:07;0.70;;;0.70;;
4144;SDS011;2086;51.050;6.982;2022-09-06T08:37:32;0.73;;;0.60;;
4144;SDS011;2086;51.050;6.982;2022-09-06T08:39:57;1.20;;;0.60;;
4144;SDS011;2086;51.050;6.982;2022-09-06T08:42:23;0.50;;;0.50;;
4144;SDS011;2086;51.050;6.982;2022-09-06T08:44:51;0.70;;;0.63;;
4144;SDS011;2086;51.050;6.982;2022-09-06T08:47:18;0.80;;;0.77;;
4144;SDS011;2086;51.050;6.982;2022-09-06T08:49:50;0.80;;;0.70;;
4144;SDS011;2086;51.050;6.982;2022-09-06T08:52:23;0.60;;;0.60;;
4144;SDS011;2086;51.050;6.982;2022-09-06T09:00:00;0.60;;;0.50;;
4144;SDS011;2086;51.050;6.982;2022-09-06T09:02:26;0.97;;;0.57;;
4144;SDS011;2086;51.050;6.982;2022-09-06T09:04:53;0.60;;;0.57;;
4144;SDS011;2086;51.050;6.982;2022-09-06T09:07:37;0.63;;;0.60;;
4144;SDS011;2086;51.050;6.982;2022-09-06T09:10:11;0.50;;;0.50;;
4144;SDS011;2086;51.050;6.982;2022-09-06T09:12:42;2.53;;;0.60;;
4144;SDS011;2086;51.050;6.982;2022-09-06T09:15:09;1.03;;;0.63;;
4144;SDS011;2086;51.050;6.982;2022-09-06T09:17:36;1.37;;;0.60;;
4144;SDS011;2086;51.050;6.982;2022-09-06T09:20:01;0.53;;;0.53;;
4144;SDS011;2086;51.050;6.982;2022-09-06T09:22:27;0.60;;;0.50;;
4144;SDS011;2086;51.050;6.982;2022-09-06T09:24:52;0.60;;;0.60;;
4144;SDS011;2086;51.050;6.982;2022-09-06T09:27:22;0.50;;;0.50;;
4144;SDS011;2086;51.050;6.982;2022-09-06T09:32:29;0.50;;;0.50;;
4144;SDS011;2086;51.050;6.982;2022-09-06T09:35:02;0.60;;;0.60;;
4144;SDS011;2086;51.050;6.982;2022-09-06T09:37:38;2.30;;;0.53;;
4144;SDS011;2086;51.050;6.982;2022-09-06T09:40:04;1.07;;;0.50;;
4144;SDS011;2086;51.050;6.982;2022-09-06T09:42:30;0.87;;;0.50;;
4144;SDS011;2086;51.050;6.982;2022-09-06T09:44:56;1.00;;;0.60;;
4144;SDS011;2086;51.050;6.982;2022-09-06T09:47:23;1.20;;;0.57;;
4144;SDS011;2086;51.050;6.982;2022-09-06T09:49:49;0.60;;;0.60;;
4144;SDS011;2086;51.050;6.982;2022-09-06T09:52:14;0.90;;;0.50;;
4144;SDS011;2086;51.050;6.982;2022-09-06T09:54:44;0.67;;;0.50;;
4144;SDS011;2086;51.050;6.982;2022-09-06T09:57:10;0.40;;;0.40;;
4144;SDS011;2086;51.050;6.982;2022-09-06T09:59:48;0.70;;;0.70;;
4144;SDS011;2086;51.050;6.982;2022-09-06T10:02:18;0.50;;;0.50;;
4144;SDS011;2086;51.050;6.982;2022-09-06T10:04:45;0.50;;;0.50;;
4144;SDS011;2086;51.050;6.982;2022-09-06T10:07:14;0.60;;;0.40;;
4144;SDS011;2086;51.050;6.982;2022-09-06T10:09:40;0.50;;;0.50;;
4144;SDS011;2086;51.050;6.982;2022-09-06T10:12:06;3.53;;;0.70;;
4144;SDS011;2086;51.050;6.982;2022-09-06T10:16:57;1.45;;;0.68;;
4144;SDS011;2086;51.050;6.982;2022-09-06T10:19:29;0.50;;;0.50;;
4144;SDS011;2086;51.050;6.982;2022-09-06T10:21:58;0.40;;;0.40;;
4144;SDS011;2086;51.050;6.982;2022-09-06T10:24:32;0.82;;;0.82;;
4144;SDS011;2086;51.050;6.982;2022-09-06T10:27:00;0.50;;;0.40;;
4144;SDS011;2086;51.050;6.982;2022-09-06T10:36:51;0.98;;;0.90;;
4144;SDS011;2086;51.050;6.982;2022-09-06T10:47:11;0.50;;;0.50;;
4144;SDS011;2086;51.050;6.982;2022-09-06T10:49:37;0.40;;;0.40;;
4144;SDS011;2086;51.050;6.982;2022-09-06T10:52:06;1.02;;;0.47;;
4144;SDS011;2086;51.050;6.982;2022-09-06T10:54:32;0.50;;;0.50;;
4144;SDS011;2086;51.050;6.982;2022-09-06T10:58:00;0.70;;;0.70;;
4144;SDS011;2086;51.050;6.982;2022-09-06T10:59:54;0.40;;;0.40;;
4144;SDS011;2086;51.050;6.982;2022-09-06T11:04:48;0.70;;;0.70;;
4144;SDS011;2086;51.050;6.982;2022-09-06T11:09:46;0.50;;;0.50;;
4144;SDS011;2086;51.050;6.982;2022-09-06T11:12:16;3.00;;;0.40;;
4144;SDS011;2086;51.050;6.982;2022-09-06T11:14:43;0.47;;;0.47;;
4144;SDS011;2086;51.050;6.982;2022-09-06T11:17:20;0.65;;;0.50;;
4144;SDS011;2086;51.050;6.982;2022-09-06T11:19:49;6.07;;;0.52;;
4144;SDS011;2086;51.050;6.982;2022-09-06T11:29:56;0.45;;;0.40;;
4144;SDS011;2086;51.050;6.982;2022-09-06T11:34:55;0.38;;;0.38;;
4144;SDS011;2086;51.050;6.982;2022-09-06T11:37:35;0.50;;;0.50;;
4144;SDS011;2086;51.050;6.982;2022-09-06T11:40:22;0.52;;;0.52;;
4144;SDS011;2086;51.050;6.982;2022-09-06T11:47:52;0.50;;;0.40;;
4144;SDS011;2086;51.050;6.982;2022-09-06T12:00:41;0.45;;;0.45;;
4144;SDS011;2086;51.050;6.982;2022-09-06T12:03:07;3.50;;;0.40;;
4144;SDS011;2086;51.050;6.982;2022-09-06T12:05:33;0.43;;;0.43;;
4144;SDS011;2086;51.050;6.982;2022-09-06T12:08:22;0.50;;;0.50;;
4144;SDS011;2086;51.050;6.982;2022-09-06T12:15:59;0.43;;;0.43;;
4144;SDS011;2086;51.050;6.982;2022-09-06T12:21:39;0.40;;;0.40;;
4144;SDS011;2086;51.050;6.982;2022-09-06T12:24:05;0.40;;;0.40;;
4144;SDS011;2086;51.050;6.982;2022-09-06T12:29:10;2.53;;;0.40;;
4144;SDS011;2086;51.050;6.982;2022-09-06T12:31:39;0.40;;;0.40;;
4144;SDS011;2086;51.050;6.982;2022-09-06T12:36:53;0.50;;;0.45;;
4144;SDS011;2086;51.050;6.982;2022-09-06T12:39:19;0.47;;;0.40;;
4144;SDS011;2086;51.050;6.982;2022-09-06T12:41:49;0.40;;;0.40;;
4144;SDS011;2086;51.050;6.982;2022-09-06T12:44:15;0.50;;;0.50;;
4144;SDS011;2086;51.050;6.982;2022-09-06T12:46:45;0.40;;;0.40;;
4144;SDS011;2086;51.050;6.982;2022-09-06T12:49:11;0.50;;;0.50;;
4144;SDS011;2086;51.050;6.982;2022-09-06T12:51:37;0.50;;;0.50;;
4144;SDS011;2086;51.050;6.982;2022-09-06T12:54:15;0.40;;;0.40;;
4144;SDS011;2086;51.050;6.982;2022-09-06T12:56:41;0.50;;;0.40;;
4144;SDS011;2086;51.050;6.982;2022-09-06T12:59:24;4.90;;;0.68;;
4144;SDS011;2086;51.050;6.982;2022-09-06T13:02:04;0.40;;;0.40;;
4144;SDS011;2086;51.050;6.982;2022-09-06T13:06:59;0.50;;;0.50;;
4144;SDS011;2086;51.050;6.982;2022-09-06T13:09:25;2.65;;;0.40;;
4144;SDS011;2086;51.050;6.982;2022-09-06T13:11:51;0.50;;;0.50;;
4144;SDS011;2086;51.050;6.982;2022-09-06T13:14:20;1.20;;;0.40;;
4144;SDS011;2086;51.050;6.982;2022-09-06T13:16:48;0.60;;;0.60;;
4144;SDS011;2086;51.050;6.982;2022-09-06T13:19:15;0.55;;;0.50;;
4144;SDS011;2086;51.050;6.982;2022-09-06T13:21:42;0.40;;;0.40;;
4144;SDS011;2086;51.050;6.982;2022-09-06T13:24:18;0.73;;;0.73;;
4144;SDS011;2086;51.050;6.982;2022-09-06T13:26:43;0.70;;;0.70;;
4144;SDS011;2086;51.050;6.982;2022-09-06T13:29:29;1.00;;;0.63;;
4144;SDS011;2086;51.050;6.982;2022-09-06T13:31:58;0.77;;;0.73;;
4144;SDS011;2086;51.050;6.982;2022-09-06T13:34:30;1.17;;;0.60;;
4144;SDS011;2086;51.050;6.982;2022-09-06T13:36:59;0.50;;;0.50;;
4144;SDS011;2086;51.050;6.982;2022-09-06T13:39:34;0.60;;;0.60;;
4144;SDS011;2086;51.050;6.982;2022-09-06T13:44:30;0.50;;;0.50;;
4144;SDS011;2086;51.050;6.982;2022-09-06T13:46:56;1.05;;;0.60;;
4144;SDS011;2086;51.050;6.982;2022-09-06T13:49:22;0.85;;;0.60;;
4144;SDS011;2086;51.050;6.982;2022-09-06T13:51:47;0.82;;;0.40;;
4144;SDS011;2086;51.050;6.982;2022-09-06T13:54:13;0.60;;;0.60;;
4144;SDS011;2086;51.050;6.982;2022-09-06T13:56:38;1.02;;;0.43;;
4144;SDS011;2086;51.050;6.982;2022-09-06T13:59:05;1.40;;;0.50;;
4144;SDS011;2086;51.050;6.982;2022-09-06T14:01:31;0.77;;;0.77;;
4144;SDS011;2086;51.050;6.982;2022-09-06T14:03:56;0.60;;;0.60;;
4144;SDS011;2086;51.050;6.982;2022-09-06T14:06:22;0.50;;;0.50;;
4144;SDS011;2086;51.050;6.982;2022-09-06T14:08:47;1.60;;;0.82;;
4144;SDS011;2086;51.050;6.982;2022-09-06T14:11:13;0.75;;;0.75;;
4144;SDS011;2086;51.050;6.982;2022-09-06T14:13:38;0.50;;;0.50;;
4144;SDS011;2086;51.050;6.982;2022-09-06T14:16:04;0.55;;;0.55;;
4144;SDS011;2086;51.050;6.982;2022-09-06T14:18:29;0.80;;;0.80;;
4144;SDS011;2086;51.050;6.982;2022-09-06T14:20:55;0.95;;;0.70;;
4144;SDS011;2086;51.050;6.982;2022-09-06T14:23:22;2.60;;;0.73;;
4144;SDS011;2086;51.050;6.982;2022-09-06T14:25:48;1.20;;;0.70;;
4144;SDS011;2086;51.050;6.982;2022-09-06T14:28:13;2.23;;;0.60;;
4144;SDS011;2086;51.050;6.982;2022-09-06T14:30:38;0.63;;;0.60;;
4144;SDS011;2086;51.050;6.982;2022-09-06T14:33:03;3.70;;;0.90;;
4144;SDS011;2086;51.050;6.982;2022-09-06T14:35:32;0.60;;;0.50;;
4144;SDS011;2086;51.050;6.982;2022-09-06T14:37:58;0.50;;;0.50;;
4144;SDS011;2086;51.050;6.982;2022-09-06T14:40:23;0.53;;;0.53;;
4144;SDS011;2086;51.050;6.982;2022-09-06T14:42:49;2.83;;;0.63;;
4144;SDS011;2086;51.050;6.982;2022-09-06T14:45:14;1.67;;;0.50;;
4144;SDS011;2086;51.050;6.982;2022-09-06T14:47:39;3.03;;;0.70;;
4144;SDS011;2086;51.050;6.982;2022-09-06T14:50:05;0.97;;;0.70;;
4144;SDS011;2086;51.050;6.982;2022-09-06T14:52:30;1.00;;;0.90;;
4144;SDS011;2086;51.050;6.982;2022-09-06T14:54:55;0.50;;;0.43;;
4144;SDS011;2086;51.050;6.982;2022-09-06T14:57:21;0.90;;;0.90;;
4144;SDS011;2086;51.050;6.982;2022-09-06T14:59:46;0.90;;;0.90;;
4144;SDS011;2086;51.050;6.982;2022-09-06T15:02:11;0.50;;;0.40;;
4144;SDS011;2086;51.050;6.982;2022-09-06T15:04:36;3.50;;;0.60;;
4144;SDS011;2086;51.050;6.982;2022-09-06T15:07:02;0.50;;;0.50;;
4144;SDS011;2086;51.050;6.982;2022-09-06T15:09:27;0.63;;;0.60;;
4144;SDS011;2086;51.050;6.982;2022-09-06T15:11:53;0.50;;;0.50;;
4144;SDS011;2086;51.050;6.982;2022-09-06T15:14:19;0.80;;;0.50;;
4144;SDS011;2086;51.050;6.982;2022-09-06T15:16:46;0.50;;;0.50;;
4144;SDS011;2086;51.050;6.982;2022-09-06T15:19:12;0.60;;;0.60;;
4144;SDS011;2086;51.050;6.982;2022-09-06T15:21:38;1.07;;;0.60;;
4144;SDS011;2086;51.050;6.982;2022-09-06T15:24:03;0.70;;;0.70;;
4144;SDS011;2086;51.050;6.982;2022-09-06T15:26:29;2.30;;;0.40;;
4144;SDS011;2086;51.050;6.982;2022-09-06T15:28:55;0.50;;;0.50;;
4144;SDS011;2086;51.050;6.982;2022-09-06T15:31:20;0.63;;;0.60;;
4144;SDS011;2086;51.050;6.982;2022-09-06T15:33:46;0.60;;;0.60;;
4144;SDS011;2086;51.050;6.982;2022-09-06T15:36:13;0.40;;;0.40;;
4144;SDS011;2086;51.050;6.982;2022-09-06T15:41:11;0.60;;;0.53;;
4144;SDS011;2086;51.050;6.982;2022-09-06T15:43:37;0.50;;;0.40;;
4144;SDS011;2086;51.050;6.982;2022-09-06T15:46:04;0.60;;;0.60;;
4144;SDS011;2086;51.050;6.982;2022-09-06T15:48:29;2.53;;;0.40;;
4144;SDS011;2086;51.050;6.982;2022-09-06T15:51:03;0.60;;;0.50;;
4144;SDS011;2086;51.050;6.982;2022-09-06T15:53:28;0.60;;;0.60;;
4144;SDS011;2086;51.050;6.982;2022-09-06T15:55:57;0.50;;;0.50;;
4144;SDS011;2086;51.050;6.982;2022-09-06T15:58:23;1.70;;;0.60;;
4144;SDS011;2086;51.050;6.982;2022-09-06T16:01:02;0.60;;;0.60;;
4144;SDS011;2086;51.050;6.982;2022-09-06T16:03:27;0.40;;;0.40;;
4144;SDS011;2086;51.050;6.982;2022-09-06T16:05:52;0.53;;;0.53;;
4144;SDS011;2086;51.050;6.982;2022-09-06T16:08:18;0.50;;;0.50;;
4144;SDS011;2086;51.050;6.982;2022-09-06T16:10:43;0.40;;;0.40;;
4144;SDS011;2086;51.050;6.982;2022-09-06T16:13:08;0.57;;;0.57;;
4144;SDS011;2086;51.050;6.982;2022-09-06T16:15:34;0.60;;;0.53;;
4144;SDS011;2086;51.050;6.982;2022-09-06T16:17:59;1.10;;;0.83;;
4144;SDS011;2086;51.050;6.982;2022-09-06T16:20:29;0.50;;;0.40;;
4144;SDS011;2086;51.050;6.982;2022-09-06T16:22:54;0.90;;;0.50;;
4144;SDS011;2086;51.050;6.982;2022-09-06T16:25:19;0.50;;;0.50;;
4144;SDS011;2086;51.050;6.982;2022-09-06T16:27:45;0.50;;;0.43;;
4144;SDS011;2086;51.050;6.982;2022-09-06T16:30:10;0.50;;;0.40;;
4144;SDS011;2086;51.050;6.982;2022-09-06T16:32:35;0.77;;;0.43;;
4144;SDS011;2086;51.050;6.982;2022-09-06T16:35:01;0.73;;;0.40;;
4144;SDS011;2086;51.050;6.982;2022-09-06T16:37:27;0.60;;;0.50;;
4144;SDS011;2086;51.050;6.982;2022-09-06T16:39:52;0.50;;;0.50;;
4144;SDS011;2086;51.050;6.982;2022-09-06T16:42:18;0.60;;;0.47;;
4144;SDS011;2086;51.050;6.982;2022-09-06T16:44:44;0.60;;;0.53;;
4144;SDS011;2086;51.050;6.982;2022-09-06T16:47:09;0.67;;;0.53;;
4144;SDS011;2086;51.050;6.982;2022-09-06T16:49:34;0.50;;;0.50;;
4144;SDS011;2086;51.050;6.982;2022-09-06T16:51:59;0.60;;;0.40;;
4144;SDS011;2086;51.050;6.982;2022-09-06T16:54:25;1.00;;;0.60;;
4144;SDS011;2086;51.050;6.982;2022-09-06T16:56:50;0.67;;;0.60;;
4144;SDS011;2086;51.050;6.982;2022-09-06T16:59:15;0.60;;;0.60;;
4144;SDS011;2086;51.050;6.982;2022-09-06T17:01:41;0.97;;;0.50;;
4144;SDS011;2086;51.050;6.982;2022-09-06T17:04:07;0.60;;;0.60;;
4144;SDS011;2086;51.050;6.982;2022-09-06T17:06:33;0.77;;;0.50;;